createdAt,value
2023-01-30T00:01:02.384Z,8.68
2023-01-30T00:03:28.854Z,8.90
2023-01-30T00:05:55.877Z,10.23
2023-01-30T00:08:22.567Z,10.70
2023-01-30T00:10:49.247Z,9.40
2023-01-30T00:13:16.130Z,10.40
2023-01-30T00:15:43.371Z,10.95
2023-01-30T00:18:10.103Z,9.85
2023-01-30T00:20:36.513Z,10.48
2023-01-30T00:23:02.988Z,10.52
2023-01-30T00:25:29.573Z,9.50
2023-01-30T00:27:56.538Z,9.85
2023-01-30T00:30:22.927Z,10.35
2023-01-30T00:32:54.418Z,9.98
2023-01-30T00:35:20.722Z,10.25
2023-01-30T00:37:47.020Z,10.73
2023-01-30T00:40:13.488Z,10.68
2023-01-30T00:42:58.621Z,10.50
2023-01-30T00:45:43.427Z,10.80
2023-01-30T00:48:09.755Z,10.82
2023-01-30T00:50:45.212Z,9.88
2023-01-30T00:53:13.339Z,10.93
2023-01-30T00:55:40.491Z,11.05
2023-01-30T00:58:06.916Z,11.70
2023-01-30T01:00:33.629Z,11.20
2023-01-30T01:03:00.204Z,9.40
2023-01-30T01:09:26.341Z,10.68
2023-01-30T01:11:52.688Z,10.40
2023-01-30T01:14:19.036Z,9.85
2023-01-30T01:16:45.483Z,9.52
2023-01-30T01:19:11.774Z,10.35
2023-01-30T01:21:38.093Z,9.38
2023-01-30T01:24:04.616Z,9.18
2023-01-30T01:26:31.039Z,9.70
2023-01-30T01:28:58.751Z,9.95
2023-01-30T01:31:25.857Z,10.18
2023-01-30T01:33:52.607Z,10.68
2023-01-30T01:36:42.534Z,10.07
2023-01-30T01:39:05.621Z,10.48
2023-01-30T01:41:32.004Z,10.35
2023-01-30T01:44:10.344Z,11.43
2023-01-30T01:46:58.015Z,9.70
2023-01-30T01:49:35.576Z,9.07
2023-01-30T01:52:07.307Z,9.80
2023-01-30T01:54:44.914Z,9.40
2023-01-30T01:57:18.129Z,8.77
2023-01-30T01:59:50.039Z,9.27
2023-01-30T02:02:17.074Z,8.43
2023-01-30T02:05:04.961Z,9.57
2023-01-30T02:07:45.757Z,8.48
2023-01-30T02:10:20.817Z,9.00
2023-01-30T02:12:48.089Z,9.40
2023-01-30T02:15:15.292Z,9.48
2023-01-30T02:17:41.900Z,8.93
2023-01-30T02:20:28.335Z,8.73
2023-01-30T02:23:10.012Z,9.05
2023-01-30T02:25:48.508Z,9.20
2023-01-30T02:28:34.328Z,9.75
2023-01-30T02:31:22.925Z,10.68
2023-01-30T02:34:10.761Z,9.77
2023-01-30T02:37:22.233Z,10.45
2023-01-30T02:40:17.778Z,10.02
2023-01-30T02:43:12.957Z,9.47
2023-01-30T02:46:02.192Z,9.70
2023-01-30T02:48:39.994Z,10.80
2023-01-30T02:51:13.605Z,9.50
2023-01-30T02:53:40.149Z,9.95
2023-01-30T02:56:06.775Z,10.70
2023-01-30T02:58:41.512Z,10.68
2023-01-30T03:01:58.504Z,9.73
2023-01-30T03:04:39.597Z,10.45
2023-01-30T03:07:05.938Z,11.18
2023-01-30T03:09:51.160Z,11.30
2023-01-30T03:12:31.406Z,9.90
2023-01-30T03:15:11.506Z,10.00
2023-01-30T03:17:43.595Z,9.75
2023-01-30T03:20:10.649Z,11.05
2023-01-30T03:22:36.959Z,11.00
2023-01-30T03:25:03.606Z,11.23
2023-01-30T03:27:30.344Z,9.45
2023-01-30T03:29:56.677Z,10.65
2023-01-30T03:32:22.996Z,10.25
2023-01-30T03:34:49.349Z,10.35
2023-01-30T03:37:15.754Z,10.60
2023-01-30T03:39:42.260Z,10.55
2023-01-30T03:42:09.041Z,10.40
2023-01-30T03:44:35.352Z,9.32
2023-01-30T03:47:01.760Z,10.32
2023-01-30T03:49:28.161Z,9.75
2023-01-30T03:51:54.513Z,10.50
2023-01-30T03:54:20.960Z,11.55
2023-01-30T03:56:47.313Z,12.02
2023-01-30T03:59:13.612Z,12.48
2023-01-30T04:01:40.010Z,11.15
2023-01-30T04:04:06.383Z,11.43
2023-01-30T04:06:32.737Z,11.13
2023-01-30T04:08:59.046Z,11.73
2023-01-30T04:11:25.406Z,12.80
2023-01-30T04:13:51.719Z,11.15
2023-01-30T04:16:24.547Z,12.70
2023-01-30T04:18:51.355Z,12.50
2023-01-30T04:21:18.433Z,11.45
2023-01-30T04:23:44.948Z,11.75
2023-01-30T04:26:12.179Z,11.77
2023-01-30T04:28:38.584Z,12.13
2023-01-30T04:31:05.387Z,12.77
2023-01-30T04:33:35.200Z,11.73
2023-01-30T04:36:03.248Z,13.77
2023-01-30T04:38:31.398Z,11.85
2023-01-30T04:40:58.635Z,12.35
2023-01-30T04:43:26.749Z,11.88
2023-01-30T04:45:53.589Z,12.18
2023-01-30T04:48:21.309Z,12.23
2023-01-30T04:50:49.317Z,10.45
2023-01-30T04:53:16.711Z,11.50
2023-01-30T04:55:43.413Z,11.95
2023-01-30T04:58:10.008Z,11.18
2023-01-30T05:00:36.440Z,11.75
2023-01-30T05:03:02.870Z,10.77
2023-01-30T05:05:29.284Z,10.02
2023-01-30T05:07:55.632Z,10.95
2023-01-30T05:10:21.968Z,10.38
2023-01-30T05:12:50.272Z,9.40
2023-01-30T05:15:17.205Z,11.07
2023-01-30T05:17:44.763Z,9.75
2023-01-30T05:20:13.478Z,11.00
2023-01-30T05:22:40.065Z,10.48
2023-01-30T05:25:07.092Z,10.18
2023-01-30T05:27:33.424Z,10.05
2023-01-30T05:29:59.708Z,10.90
2023-01-30T05:32:27.246Z,9.38
2023-01-30T05:34:53.557Z,10.48
2023-01-30T05:37:19.859Z,9.07
2023-01-30T05:39:46.185Z,10.18
2023-01-30T05:42:12.453Z,10.45
2023-01-30T05:44:38.740Z,9.65
2023-01-30T05:47:05.106Z,10.00
2023-01-30T05:49:31.562Z,8.90
2023-01-30T05:51:58.099Z,8.77
2023-01-30T05:54:24.440Z,7.97
2023-01-30T05:56:51.200Z,8.88
2023-01-30T05:59:18.583Z,8.65
2023-01-30T06:01:44.956Z,8.20
2023-01-30T06:04:11.385Z,7.68
2023-01-30T06:06:37.907Z,8.85
2023-01-30T06:09:04.628Z,8.75
2023-01-30T06:11:31.015Z,8.75
2023-01-30T06:13:57.354Z,9.07
2023-01-30T06:16:23.844Z,8.43
2023-01-30T06:18:50.240Z,7.97
2023-01-30T06:21:16.833Z,9.88
2023-01-30T06:23:43.404Z,7.70
2023-01-30T06:26:10.166Z,10.50
2023-01-30T06:28:36.681Z,7.95
2023-01-30T06:31:05.321Z,8.13
2023-01-30T06:33:31.712Z,7.40
2023-01-30T06:35:58.042Z,8.80
2023-01-30T06:38:26.097Z,6.88
2023-01-30T06:40:52.532Z,8.75
2023-01-30T06:43:18.829Z,9.13
2023-01-30T06:45:45.133Z,8.75
2023-01-30T06:48:11.504Z,8.30
2023-01-30T06:50:37.984Z,7.72
2023-01-30T06:53:06.280Z,8.75
2023-01-30T06:55:36.898Z,9.02
2023-01-30T06:58:07.914Z,7.63
2023-01-30T07:00:34.751Z,7.95
2023-01-30T07:03:01.097Z,8.40
2023-01-30T07:05:28.940Z,7.68
2023-01-30T07:07:55.498Z,7.38
2023-01-30T07:10:21.936Z,9.00
2023-01-30T07:12:48.305Z,7.55
2023-01-30T07:15:14.912Z,8.88
2023-01-30T07:17:41.860Z,7.90
2023-01-30T07:20:11.724Z,6.82
2023-01-30T07:22:38.192Z,7.93
2023-01-30T07:25:05.355Z,7.20
2023-01-30T07:27:31.990Z,6.93
2023-01-30T07:29:58.379Z,6.97
2023-01-30T07:32:25.060Z,7.65
2023-01-30T07:34:51.359Z,7.70
2023-01-30T07:37:17.732Z,7.20
2023-01-30T07:39:44.125Z,8.15
2023-01-30T07:42:10.480Z,7.22
2023-01-30T07:44:36.876Z,7.28
2023-01-30T07:47:03.393Z,7.53
2023-01-30T07:49:29.852Z,8.25
2023-01-30T07:51:56.163Z,7.47
2023-01-30T07:54:22.625Z,7.50
2023-01-30T07:56:49.028Z,7.63
2023-01-30T07:59:15.335Z,7.65
2023-01-30T08:01:41.657Z,6.68
2023-01-30T08:04:11.746Z,6.35
2023-01-30T08:06:39.486Z,6.57
2023-01-30T08:09:06.903Z,7.43
2023-01-30T08:11:33.718Z,6.63
2023-01-30T08:14:00.155Z,7.30
2023-01-30T08:16:26.620Z,7.32
2023-01-30T08:18:52.997Z,7.13
2023-01-30T08:21:19.350Z,6.50
2023-01-30T08:23:45.805Z,6.65
2023-01-30T08:26:12.176Z,6.60
2023-01-30T08:28:39.429Z,6.55
2023-01-30T08:31:10.112Z,6.20
2023-01-30T08:33:36.671Z,6.80
2023-01-30T08:36:03.080Z,6.63
2023-01-30T08:38:29.409Z,5.75
2023-01-30T08:40:57.831Z,6.47
2023-01-30T08:43:24.409Z,5.75
2023-01-30T08:45:53.540Z,5.18
2023-01-30T08:48:19.892Z,5.10
2023-01-30T08:50:46.257Z,5.13
2023-01-30T08:53:12.608Z,5.22
2023-01-30T08:55:38.924Z,4.65
2023-01-30T08:58:05.290Z,5.93
2023-01-30T09:00:31.659Z,5.63
2023-01-30T09:02:58.264Z,4.90
2023-01-30T09:05:25.198Z,4.13
2023-01-30T09:07:51.602Z,3.42
2023-01-30T09:10:19.051Z,3.92
2023-01-30T09:12:46.470Z,3.80
2023-01-30T09:15:13.044Z,3.78
2023-01-30T09:17:39.448Z,3.78
2023-01-30T09:20:09.796Z,3.75
2023-01-30T09:22:36.760Z,3.53
2023-01-30T09:25:03.642Z,3.50
2023-01-30T09:27:30.125Z,3.47
2023-01-30T09:29:56.639Z,3.45
2023-01-30T09:32:23.305Z,3.20
2023-01-30T09:34:49.765Z,2.92
2023-01-30T09:37:16.169Z,2.60
2023-01-30T09:39:42.494Z,2.33
2023-01-30T09:42:33.460Z,2.55
2023-01-30T09:45:26.707Z,2.90
2023-01-30T09:48:18.000Z,2.15
2023-01-30T09:50:44.633Z,2.20
2023-01-30T09:53:30.629Z,2.40
2023-01-30T09:56:00.260Z,1.80
2023-01-30T09:58:37.550Z,2.10
2023-01-30T10:01:16.822Z,2.08
2023-01-30T10:04:06.246Z,2.08
2023-01-30T10:06:41.763Z,1.77
2023-01-30T10:12:08.588Z,1.55
2023-01-30T10:14:46.030Z,1.60
2023-01-30T10:17:31.514Z,1.70
2023-01-30T10:20:44.383Z,1.75
2023-01-30T10:23:30.351Z,1.73
2023-01-30T10:28:30.482Z,1.70
2023-01-30T10:31:04.494Z,1.55
2023-01-30T10:33:46.618Z,1.67
2023-01-30T10:36:18.628Z,1.50
2023-01-30T10:38:50.942Z,1.67
2023-01-30T10:41:33.260Z,1.48
2023-01-30T10:44:02.603Z,1.45
2023-01-30T10:46:39.728Z,1.60
2023-01-30T10:49:13.550Z,1.60
2023-01-30T10:51:46.489Z,1.30
2023-01-30T10:54:28.821Z,1.33
2023-01-30T10:57:13.629Z,1.48
2023-01-30T11:00:06.493Z,1.42
2023-01-30T11:02:54.050Z,1.65
2023-01-30T11:05:56.301Z,2.22
2023-01-30T11:08:28.856Z,1.65
2023-01-30T11:10:56.982Z,1.65
2023-01-30T11:13:30.265Z,1.73
2023-01-30T11:16:06.514Z,2.35
2023-01-30T11:19:17.722Z,1.90
2023-01-30T11:21:26.987Z,1.63
2023-01-30T11:24:04.518Z,1.80
2023-01-30T11:26:46.507Z,2.00
2023-01-30T11:29:32.298Z,1.77
2023-01-30T11:32:25.838Z,1.80
2023-01-30T11:35:07.253Z,1.77
2023-01-30T11:37:41.633Z,1.55
2023-01-30T11:40:17.451Z,1.23
2023-01-30T11:42:46.712Z,1.58
2023-01-30T11:45:17.855Z,1.50
2023-01-30T11:47:57.926Z,1.77
2023-01-30T11:50:43.162Z,1.40
2023-01-30T11:53:30.145Z,1.73
2023-01-30T11:56:05.685Z,2.10
2023-01-30T11:58:38.751Z,2.15
2023-01-30T12:01:05.583Z,1.60
2023-01-30T12:03:34.045Z,2.00
2023-01-30T12:06:00.464Z,2.10
2023-01-30T12:08:43.273Z,1.60
2023-01-30T12:11:27.932Z,1.60
2023-01-30T12:13:59.659Z,1.77
2023-01-30T12:16:53.962Z,1.85
2023-01-30T12:19:55.777Z,2.00
2023-01-30T12:22:32.239Z,1.85
2023-01-30T12:25:01.344Z,1.83
2023-01-30T12:27:44.541Z,1.70
2023-01-30T12:30:20.388Z,1.67
2023-01-30T12:32:47.064Z,1.55
2023-01-30T12:35:18.250Z,2.10
2023-01-30T12:38:09.302Z,1.80
2023-01-30T12:40:38.532Z,1.77
2023-01-30T12:43:33.256Z,2.00
2023-01-30T12:46:27.528Z,1.95
2023-01-30T12:49:12.336Z,2.30
2023-01-30T12:52:20.576Z,1.52
2023-01-30T12:55:45.499Z,2.08
2023-01-30T12:58:20.278Z,1.50
2023-01-30T13:00:53.654Z,1.70
2023-01-30T13:03:41.609Z,2.25
2023-01-30T13:06:13.316Z,2.75
2023-01-30T13:08:54.152Z,2.88
2023-01-30T13:11:37.938Z,1.40
2023-01-30T13:14:06.948Z,1.48
2023-01-30T13:16:52.074Z,1.30
2023-01-30T13:19:40.361Z,1.90
2023-01-30T13:22:44.789Z,1.45
2023-01-30T13:25:36.750Z,1.60
2023-01-30T13:28:16.239Z,1.45
2023-01-30T13:30:44.630Z,1.40
2023-01-30T13:33:15.880Z,1.40
2023-01-30T13:35:47.495Z,1.35
2023-01-30T13:38:24.474Z,1.40
2023-01-30T13:40:55.352Z,1.27
2023-01-30T13:43:28.887Z,1.27
2023-01-30T13:45:58.624Z,1.45
2023-01-30T13:48:49.530Z,1.10
2023-01-30T13:51:26.944Z,2.22
2023-01-30T13:54:25.748Z,1.40
2023-01-30T13:57:01.943Z,1.40
2023-01-30T13:59:52.695Z,1.33
2023-01-30T14:02:24.685Z,1.45
2023-01-30T14:04:58.244Z,1.90
2023-01-30T14:07:30.838Z,1.50
2023-01-30T14:10:08.961Z,1.52
2023-01-30T14:12:37.439Z,1.60
2023-01-30T14:15:19.504Z,1.50
2023-01-30T14:18:00.693Z,1.58
2023-01-30T14:20:29.872Z,1.40
2023-01-30T14:22:59.048Z,1.70
2023-01-30T14:25:25.405Z,1.60
2023-01-30T14:27:53.670Z,1.40
2023-01-30T14:30:32.013Z,1.67
2023-01-30T14:33:02.831Z,1.98
2023-01-30T14:35:31.341Z,2.15
2023-01-30T14:38:10.104Z,1.67
2023-01-30T14:40:39.402Z,1.73
2023-01-30T14:43:11.719Z,1.73
2023-01-30T14:45:47.238Z,1.75
2023-01-30T14:48:33.412Z,2.22
2023-01-30T14:53:53.097Z,1.88
2023-01-30T14:56:33.484Z,1.85
2023-01-30T14:59:05.060Z,1.95
2023-01-30T15:02:09.708Z,2.00
2023-01-30T15:04:49.042Z,1.60
2023-01-30T15:07:49.640Z,1.90
2023-01-30T15:10:46.934Z,1.70
2023-01-30T15:13:41.122Z,1.83
2023-01-30T15:16:17.469Z,1.80
2023-01-30T15:19:16.782Z,1.40
2023-01-30T15:22:22.456Z,1.73
2023-01-30T15:25:05.373Z,1.60
2023-01-30T15:27:40.869Z,2.15
2023-01-30T15:32:44.771Z,1.60
2023-01-30T15:35:11.033Z,1.40
2023-01-30T15:37:46.500Z,1.45
2023-01-30T15:40:16.129Z,1.70
2023-01-30T15:42:53.609Z,1.50
2023-01-30T15:45:39.915Z,1.85
2023-01-30T15:48:41.755Z,1.75
2023-01-30T15:51:12.933Z,1.45
2023-01-30T15:53:43.161Z,1.67
2023-01-30T15:56:15.703Z,1.77
2023-01-30T15:58:44.158Z,2.10
2023-01-30T16:01:16.875Z,1.90
2023-01-30T16:03:43.463Z,1.95
2023-01-30T16:06:28.784Z,2.10
2023-01-30T16:09:01.327Z,1.92
2023-01-30T16:11:34.977Z,2.45
2023-01-30T16:14:01.318Z,2.40
2023-01-30T16:16:28.457Z,1.73
2023-01-30T16:18:59.151Z,1.67
2023-01-30T16:21:31.541Z,1.80
2023-01-30T16:24:02.854Z,4.40
2023-01-30T16:26:29.965Z,4.85
2023-01-30T16:29:11.875Z,3.00
2023-01-30T16:31:40.939Z,2.45
2023-01-30T16:34:26.865Z,4.10
2023-01-30T16:36:54.786Z,4.05
2023-01-30T16:39:33.726Z,6.05
2023-01-30T16:42:01.954Z,7.10
2023-01-30T16:44:31.096Z,4.50
2023-01-30T16:47:23.655Z,4.30
2023-01-30T16:49:50.800Z,2.58
2023-01-30T16:52:22.418Z,2.97
2023-01-30T16:54:54.221Z,3.92
2023-01-30T16:57:28.464Z,8.38
2023-01-30T16:59:55.524Z,5.25
2023-01-30T17:02:33.403Z,4.32
2023-01-30T17:05:17.398Z,6.28
2023-01-30T17:07:43.994Z,3.45
2023-01-30T17:10:39.086Z,2.38
2023-01-30T17:13:27.545Z,2.35
2023-01-30T17:15:54.391Z,1.88
2023-01-30T17:18:20.798Z,2.08
2023-01-30T17:20:51.044Z,2.00
2023-01-30T17:23:20.712Z,1.90
2023-01-30T17:25:48.637Z,2.70
2023-01-30T17:28:21.200Z,2.28
2023-01-30T17:30:49.093Z,2.55
2023-01-30T17:33:15.555Z,2.33
2023-01-30T17:35:41.984Z,1.92
2023-01-30T17:38:10.320Z,2.10
2023-01-30T17:40:37.760Z,4.60
2023-01-30T17:43:04.906Z,3.60
2023-01-30T17:45:31.300Z,5.57
2023-01-30T17:47:57.649Z,2.40
2023-01-30T17:50:24.128Z,2.97
2023-01-30T17:52:50.429Z,2.42
2023-01-30T17:55:17.418Z,2.20
2023-01-30T17:57:47.427Z,3.10
2023-01-30T18:00:16.635Z,2.13
2023-01-30T18:02:43.365Z,3.13
2023-01-30T18:05:10.166Z,2.70
2023-01-30T18:07:36.977Z,2.83
2023-01-30T18:10:03.774Z,2.42
2023-01-30T18:12:30.137Z,2.65
2023-01-30T18:14:56.520Z,2.80
2023-01-30T18:17:23.711Z,2.10
2023-01-30T18:19:50.253Z,1.85
2023-01-30T18:22:16.557Z,2.10
2023-01-30T18:24:42.909Z,2.35
2023-01-30T18:27:09.260Z,2.00
2023-01-30T18:29:35.760Z,2.28
2023-01-30T18:32:05.610Z,2.53
2023-01-30T18:34:33.775Z,2.58
2023-01-30T18:37:00.162Z,2.40
2023-01-30T18:39:26.585Z,2.00
2023-01-30T18:41:53.050Z,2.15
2023-01-30T18:44:19.436Z,1.85
2023-01-30T18:46:46.535Z,2.53
2023-01-30T18:49:12.906Z,2.03
2023-01-30T18:51:40.390Z,2.88
2023-01-30T18:54:06.775Z,3.85
2023-01-30T18:56:36.008Z,2.47
2023-01-30T18:59:05.051Z,2.65
2023-01-30T19:01:38.480Z,2.65
2023-01-30T19:04:07.426Z,2.40
2023-01-30T19:06:36.479Z,5.30
2023-01-30T19:09:03.511Z,2.30
2023-01-30T19:11:48.536Z,3.08
2023-01-30T19:14:15.329Z,4.20
2023-01-30T19:16:41.821Z,3.50
2023-01-30T19:19:09.241Z,3.13
2023-01-30T19:21:36.438Z,3.80
2023-01-30T19:24:07.080Z,3.40
2023-01-30T19:26:34.169Z,2.88
2023-01-30T19:29:00.608Z,2.30
2023-01-30T19:31:27.059Z,2.45
2023-01-30T19:33:56.376Z,2.25
2023-01-30T19:36:25.323Z,2.40
2023-01-30T19:38:52.424Z,2.13
2023-01-30T19:41:24.459Z,2.60
2023-01-30T19:43:52.687Z,2.25
2023-01-30T19:46:19.322Z,3.33
2023-01-30T19:48:47.230Z,2.30
2023-01-30T19:51:34.463Z,2.30
2023-01-30T19:54:06.834Z,2.53
2023-01-30T19:56:33.467Z,2.42
2023-01-30T19:59:01.077Z,2.63
2023-01-30T20:01:30.898Z,2.25
2023-01-30T20:03:57.728Z,2.78
2023-01-30T20:06:29.275Z,2.80
2023-01-30T20:08:59.839Z,2.55
2023-01-30T20:11:26.508Z,2.75
2023-01-30T20:13:53.393Z,1.80
2023-01-30T20:16:25.179Z,2.30
2023-01-30T20:18:57.756Z,2.00
2023-01-30T20:21:25.658Z,2.00
2023-01-30T20:23:52.956Z,2.10
2023-01-30T20:26:24.846Z,2.17
2023-01-30T20:28:51.645Z,2.05
2023-01-30T20:31:21.419Z,2.15
2023-01-30T20:33:48.308Z,2.13
2023-01-30T20:36:18.612Z,1.85
2023-01-30T20:38:46.949Z,1.70
2023-01-30T20:41:15.937Z,1.52
2023-01-30T20:43:45.054Z,1.80
2023-01-30T20:46:14.567Z,1.88
2023-01-30T20:48:41.630Z,2.40
2023-01-30T20:51:16.252Z,1.92
2023-01-30T20:53:49.044Z,1.73
2023-01-30T20:56:15.524Z,2.47
2023-01-30T20:58:41.873Z,1.55
2023-01-30T21:01:17.680Z,1.95
2023-01-30T21:03:50.334Z,2.53
2023-01-30T21:06:42.724Z,1.88
2023-01-30T21:09:07.656Z,2.38
2023-01-30T21:11:34.226Z,2.00
2023-01-30T21:14:00.946Z,1.80
2023-01-30T21:16:29.233Z,1.83
2023-01-30T21:19:00.167Z,2.10
2023-01-30T21:21:36.548Z,1.90
2023-01-30T21:24:07.367Z,2.30
2023-01-30T21:26:38.071Z,2.30
2023-01-30T21:29:06.264Z,2.00
2023-01-30T21:31:37.501Z,2.90
2023-01-30T21:34:05.632Z,2.10
2023-01-30T21:36:32.305Z,2.88
2023-01-30T21:39:17.014Z,2.25
2023-01-30T21:41:51.013Z,2.58
2023-01-30T21:44:24.958Z,2.20
2023-01-30T21:46:51.366Z,2.08
2023-01-30T21:49:18.841Z,3.40
2023-01-30T21:51:46.950Z,2.53
2023-01-30T21:54:14.143Z,2.08
2023-01-30T21:56:41.180Z,2.20
2023-01-30T21:59:07.817Z,2.28
2023-01-30T22:01:36.516Z,2.35
2023-01-30T22:04:05.197Z,3.08
2023-01-30T22:06:31.581Z,2.67
2023-01-30T22:08:59.925Z,2.42
2023-01-30T22:11:28.173Z,2.28
2023-01-30T22:13:54.906Z,2.08
2023-01-30T22:16:24.252Z,2.03
2023-01-30T22:18:58.941Z,2.25
2023-01-30T22:21:28.015Z,3.03
2023-01-30T22:23:55.521Z,3.10
2023-01-30T22:26:24.153Z,2.40
2023-01-30T22:28:58.115Z,2.78
2023-01-30T22:31:26.108Z,2.97
2023-01-30T22:33:55.025Z,2.53
2023-01-30T22:36:26.957Z,2.40
2023-01-30T22:38:53.315Z,1.95
2023-01-30T22:41:24.150Z,2.30
2023-01-30T22:43:54.723Z,2.20
2023-01-30T22:46:23.694Z,2.47
2023-01-30T22:48:50.053Z,2.22
2023-01-30T22:51:16.427Z,2.75
2023-01-30T22:53:47.961Z,2.03
2023-01-30T22:56:21.402Z,2.17
2023-01-30T22:58:48.477Z,2.22
2023-01-30T23:01:16.717Z,2.08
2023-01-30T23:03:44.199Z,2.70
2023-01-30T23:06:13.982Z,1.55
2023-01-30T23:08:44.257Z,2.58
2023-01-30T23:11:15.732Z,2.83
2023-01-30T23:13:44.877Z,2.85
2023-01-30T23:16:12.386Z,2.50
2023-01-30T23:18:57.100Z,3.10
2023-01-30T23:21:32.575Z,1.92
2023-01-30T23:24:01.337Z,1.92
2023-01-30T23:26:30.781Z,2.22
2023-01-30T23:28:57.546Z,2.15
2023-01-30T23:31:25.678Z,1.80
2023-01-30T23:33:54.565Z,2.30
2023-01-30T23:36:21.558Z,1.88
2023-01-30T23:38:52.876Z,2.25
2023-01-30T23:41:26.113Z,2.10
2023-01-30T23:43:53.245Z,1.90
2023-01-30T23:46:19.663Z,2.72
2023-01-30T23:48:48.643Z,2.15
2023-01-30T23:51:17.581Z,2.67
2023-01-30T23:53:44.963Z,2.65
2023-01-30T23:56:12.362Z,2.55
2023-01-30T23:58:38.775Z,2.42
